Barre, VT

2:07 PM EDT on August 29, 2015 (GMT -0400)
Knapp State | | Change Station
CLOSE
Current Station
Airport
Location: Montpelier,
Elevation: 1165 ft
Nearby Weather Stations

Elev 1165 ft 44.20 °N, 72.56 °W | Updated 16 minutes ago

Scattered Clouds
Scattered Clouds
74 °F
Feels Like 74 °F
N
4
Wind Variable Wind from Variable

Today
High -- | Low -- °F
--% Chance of Precip.
Yesterday
High -- | Low -- °F
Precip. -- in
6:09 AM 7:32 PM
Full, 100% visible
Pressure 30.18 in
Visibility 10.0 miles
Clouds Scattered Clouds 3700 ft
Dew Point 55 °F
Humidity 52%
Rainfall 0.00 in
Snow Depth Not available.
UV 7 out of 12
Pollen 8.40 out of 12
Air Quality Not available.
Flu Activity Not available.
METAR KMPV 291751Z AUTO VRB03KT 10SM SCT037 23/13 A3018 RMK AO2 SLP219 T02330128 10233 20111 57016
Pressure 30.18 in
Visibility 10.0 miles
Clouds Scattered Clouds 3700 ft
Dew Point 55 °F
Humidity 52%
Rainfall 0.00 in
Snow Depth Not available.
UV 7 out of 12
Pollen 8.40 out of 12
Air Quality Not available.
Flu Activity Not available.
METAR KMPV 291751Z AUTO VRB03KT 10SM SCT037 23/13 A3018 RMK AO2 SLP219 T02330128 10233 20111 57016

10-Day Weather Forecast

×

Almanac

Astronomy

Aug. 29, 2015 Rise Set
Actual Time
Civil Twilight
Nautical Twilight
Astronomical Twilight
Moon
Length of Visible Light
Length of Day
Tomorrow will be .
, % of the Moon is Illuminated

Today's Extremes

State Highs State Lows

Community

WunderPhotos

Upload Photos

1,850,750 photos uploaded!

WunderBlogs® & News

Nearby

Air Quality

  Air Quality AQ Index Pollutant
Not available.

Snow Depth

Station Depth Elevation

Earthquake Activity

City Distance Mag. Time & Date
Minimum magnitude displayed is 2.5.

Coastal Water Temperatures

Place Temperature

Stations

Nearby Weather Stations

Station Location Temp. Windchill Dew Point Humidity Wind Precip. Elev Updated Type